<?xml version="1.0" encoding="UTF-8" standalone="yes"?>
<gpx xmlns="http://www.topografix.com/GPX/1/1" xmlns:gpxtrx="http://www.garmin.com/xmlschemas/GpxExtensions/v3" xmlns:rcxx="http://www.routeconverter.de/xmlschemas/RouteCatalogExtensions/1.0" xmlns:xsi="http://www.w3.org/2001/XMLSchema-instance" xmlns:gpxtpx="http://www.garmin.com/xmlschemas/TrackPointExtension/v1" xmlns:gpxx="http://www.garmin.com/xmlschemas/WaypointExtension/v1" xmlns:nmea="http://trekbuddy.net/2009/01/gpx/nmea" creator="Generated by Christian Pesch's RouteConverter. See http://www.routeconverter.com" version="1.1">
    <trk>
        <name>W000 to W146</name>
        <trkseg>
            <trkpt lon="6.948916667" lat="49.609805556">
                <ele>373.1200028799962</ele>
                <time>2006-06-18T09:27:52.000Z</time>
                <name>W000</name>
            </trkpt>
            <trkpt lon="6.948305556" lat="49.609222222">
                <ele>371.26444582222393</ele>
                <time>2006-06-18T09:27:59.000Z</time>
                <name>W001</name>
            </trkpt>
            <trkpt lon="6.947944444" lat="49.608916667">
                <ele>372.39333082665314</ele>
                <time>2006-06-18T09:28:03.000Z</time>
                <name>W002</name>
            </trkpt>
            <trkpt lon="6.947861111" lat="49.608416667">
                <ele>374.92333130666583</ele>
                <time>2006-06-18T09:28:06.000Z</time>
                <name>W003</name>
            </trkpt>
            <trkpt lon="6.948444444" lat="49.608277778">
                <ele>377.0511088355476</ele>
                <time>2006-06-18T09:28:09.000Z</time>
                <name>W004</name>
            </trkpt>
            <trkpt lon="6.948611111" lat="49.605611111">
                <ele>394.76666639999775</ele>
                <time>2006-06-18T09:28:14.000Z</time>
                <name>W005</name>
            </trkpt>
            <trkpt lon="6.953472222" lat="49.605">
                <ele>410.3333320000564</ele>
                <time>2006-06-18T09:28:20.000Z</time>
                <name>W006</name>
            </trkpt>
            <trkpt lon="6.953527778" lat="49.604583333">
                <ele>417.7000064266534</ele>
                <time>2006-06-18T09:28:22.000Z</time>
                <name>W007</name>
            </trkpt>
            <trkpt lon="6.956305556" lat="49.605111111">
                <ele>422.7911144488879</ele>
                <time>2006-06-18T09:28:26.000Z</time>
                <name>W008</name>
            </trkpt>
            <trkpt lon="6.959472222" lat="49.606666667">
                <ele>427.5999981066688</ele>
                <time>2006-06-18T09:28:29.000Z</time>
                <name>W009</name>
            </trkpt>
            <trkpt lon="6.960222222" lat="49.60625">
                <ele>433.4333343999771</ele>
                <time>2006-06-18T09:28:41.000Z</time>
                <name>W010</name>
            </trkpt>
            <trkpt lon="6.96075" lat="49.604416667">
                <ele>442.55999727998216</ele>
                <time>2006-06-18T09:28:45.000Z</time>
                <name>W011</name>
            </trkpt>
            <trkpt lon="6.960444444" lat="49.603305556">
                <ele>449.8333359999883</ele>
                <time>2006-06-18T09:28:48.000Z</time>
                <name>W012</name>
            </trkpt>
            <trkpt lon="6.960333333" lat="49.602777778">
                <ele>453.56666920001385</ele>
                <time>2006-06-18T09:28:51.000Z</time>
                <name>W013</name>
            </trkpt>
            <trkpt lon="6.96075" lat="49.601194444">
                <ele>455.04333487999816</ele>
                <time>2006-06-18T09:28:54.000Z</time>
                <name>W014</name>
            </trkpt>
            <trkpt lon="6.960222222" lat="49.600166667">
                <ele>460.40666864000815</ele>
                <time>2006-06-18T09:28:56.000Z</time>
                <name>W015</name>
            </trkpt>
            <trkpt lon="6.960583333" lat="49.598972222">
                <ele>463.04000354666977</ele>
                <time>2006-06-18T09:28:58.000Z</time>
                <name>W016</name>
            </trkpt>
            <trkpt lon="6.9605" lat="49.595722222">
                <ele>464.68666463999483</ele>
                <time>2006-06-18T09:29:05.000Z</time>
                <name>W017</name>
            </trkpt>
            <trkpt lon="6.959861111" lat="49.594694444">
                <ele>461.3444449955491</ele>
                <time>2006-06-18T09:29:16.000Z</time>
                <name>W018</name>
            </trkpt>
            <trkpt lon="6.960194444" lat="49.592694444">
                <ele>459.29111640887834</ele>
                <time>2006-06-18T09:29:19.000Z</time>
                <name>W019</name>
            </trkpt>
            <trkpt lon="6.961138889" lat="49.590777778">
                <ele>461.0222185777385</ele>
                <time>2006-06-18T09:29:24.000Z</time>
                <name>W020</name>
            </trkpt>
            <trkpt lon="6.962638889" lat="49.589055556">
                <ele>478.4777714489121</ele>
                <time>2006-06-18T09:29:27.000Z</time>
                <name>W021</name>
            </trkpt>
            <trkpt lon="6.968111111" lat="49.5865">
                <ele>453.7933352800008</ele>
                <time>2006-06-18T09:29:44.000Z</time>
                <name>W022</name>
            </trkpt>
            <trkpt lon="6.968472222" lat="49.58475">
                <ele>444.7333375999988</ele>
                <time>2006-06-18T09:29:48.000Z</time>
                <name>W023</name>
            </trkpt>
            <trkpt lon="6.968555556" lat="49.583027778">
                <ele>431.29332970666627</ele>
                <time>2006-06-18T09:29:52.000Z</time>
                <name>W024</name>
            </trkpt>
            <trkpt lon="6.968027778" lat="49.581805556">
                <ele>427.7666695999932</ele>
                <time>2006-06-18T09:29:56.000Z</time>
                <name>W025</name>
            </trkpt>
            <trkpt lon="6.967555556" lat="49.581694444">
                <ele>428.53332800000123</ele>
                <time>2006-06-18T09:29:59.000Z</time>
                <name>W026</name>
            </trkpt>
            <trkpt lon="6.965027778" lat="49.578194444">
                <ele>430.95555287110966</ele>
                <time>2006-06-18T09:30:20.000Z</time>
                <name>W027</name>
            </trkpt>
            <trkpt lon="6.962666667" lat="49.577166667">
                <ele>433.9400026400028</ele>
                <time>2006-06-18T09:30:23.000Z</time>
                <name>W028</name>
            </trkpt>
            <trkpt lon="6.9585" lat="49.575416667">
                <ele>442.9000049599844</ele>
                <time>2006-06-18T09:30:33.000Z</time>
                <name>W029</name>
            </trkpt>
            <trkpt lon="6.955361111" lat="49.573111111">
                <ele>446.1155559777956</ele>
                <time>2006-06-18T09:30:44.000Z</time>
                <name>W030</name>
            </trkpt>
            <trkpt lon="6.955027778" lat="49.572833333">
                <ele>447.6199953733243</ele>
                <time>2006-06-18T09:30:47.000Z</time>
                <name>W031</name>
            </trkpt>
            <trkpt lon="6.955277778" lat="49.572666667">
                <ele>443.966666746666</ele>
                <time>2006-06-18T09:30:51.000Z</time>
                <name>W032</name>
            </trkpt>
            <trkpt lon="6.954416667" lat="49.571916667">
                <ele>443.12000192003853</ele>
                <time>2006-06-18T09:30:55.000Z</time>
                <name>W033</name>
            </trkpt>
            <trkpt lon="6.954777778" lat="49.570944444">
                <ele>437.87333253333156</ele>
                <time>2006-06-18T09:30:58.000Z</time>
                <name>W034</name>
            </trkpt>
            <trkpt lon="6.954555556" lat="49.570472222">
                <ele>438.66888897777926</ele>
                <time>2006-06-18T09:31:00.000Z</time>
                <name>W035</name>
            </trkpt>
            <trkpt lon="6.9545" lat="49.570027778">
                <ele>439.453332960006</ele>
                <time>2006-06-18T09:31:03.000Z</time>
                <name>W036</name>
            </trkpt>
            <trkpt lon="6.955166667" lat="49.568944444">
                <ele>441.11333298666403</ele>
                <time>2006-06-18T09:31:06.000Z</time>
                <name>W037</name>
            </trkpt>
            <trkpt lon="6.955777778" lat="49.567888889">
                <ele>444.9222225777629</ele>
                <time>2006-06-18T09:31:08.000Z</time>
                <name>W038</name>
            </trkpt>
            <trkpt lon="6.9575" lat="49.56025">
                <ele>510.8000000000084</ele>
                <time>2006-06-18T09:31:59.000Z</time>
                <name>W039</name>
            </trkpt>
            <trkpt lon="6.957805556" lat="49.558944444">
                <ele>500.89110286220887</ele>
                <time>2006-06-18T09:32:21.000Z</time>
                <name>W040</name>
            </trkpt>
            <trkpt lon="6.958527778" lat="49.557277778">
                <ele>477.5733341866632</ele>
                <time>2006-06-18T09:32:24.000Z</time>
                <name>W041</name>
            </trkpt>
            <trkpt lon="6.958361111" lat="49.557027778">
                <ele>475.7133364266454</ele>
                <time>2006-06-18T09:33:26.000Z</time>
                <name>W042</name>
            </trkpt>
            <trkpt lon="6.95675" lat="49.5565">
                <ele>465.7799999999925</ele>
                <time>2006-06-18T09:33:28.000Z</time>
                <name>W043</name>
            </trkpt>
            <trkpt lon="6.954277778" lat="49.554111111">
                <ele>451.5266627732744</ele>
                <time>2006-06-18T09:33:32.000Z</time>
                <name>W044</name>
            </trkpt>
            <trkpt lon="6.9585" lat="49.551055556">
                <ele>408.05999871999654</ele>
                <time>2006-06-18T09:34:11.000Z</time>
                <name>W045</name>
            </trkpt>
            <trkpt lon="6.959305556" lat="49.551361111">
                <ele>404.9222202844418</ele>
                <time>2006-06-18T09:34:20.000Z</time>
                <name>W046</name>
            </trkpt>
            <trkpt lon="6.965333333" lat="49.544305556">
                <ele>402.3666680933395</ele>
                <time>2006-06-18T09:34:58.000Z</time>
                <name>W048</name>
            </trkpt>
            <trkpt lon="6.9595" lat="49.534416667">
                <ele>350.9400035200232</ele>
                <time>2006-06-18T09:35:11.000Z</time>
                <name>W049</name>
            </trkpt>
            <trkpt lon="6.961083333" lat="49.53425">
                <ele>345.39000148000014</ele>
                <time>2006-06-18T09:35:14.000Z</time>
                <name>W050</name>
            </trkpt>
            <trkpt lon="6.964027778" lat="49.535111111">
                <ele>340.3777730355339</ele>
                <time>2006-06-18T09:35:18.000Z</time>
                <name>W051</name>
            </trkpt>
            <trkpt lon="6.964972222" lat="49.535055556">
                <ele>335.3800071467139</ele>
                <time>2006-06-18T09:35:30.000Z</time>
                <name>W052</name>
            </trkpt>
            <trkpt lon="6.966027778" lat="49.534638889">
                <ele>329.7277780222229</ele>
                <time>2006-06-18T09:35:33.000Z</time>
                <name>W053</name>
            </trkpt>
            <trkpt lon="6.967361111" lat="49.534333333">
                <ele>318.3999949199893</ele>
                <time>2006-06-18T09:35:35.000Z</time>
                <name>W054</name>
            </trkpt>
            <trkpt lon="6.968138889" lat="49.533194444">
                <ele>308.91666417334983</ele>
                <time>2006-06-18T09:35:38.000Z</time>
                <name>W055</name>
            </trkpt>
            <trkpt lon="6.968638889" lat="49.532972222">
                <ele>307.48444288887526</ele>
                <time>2006-06-18T09:35:42.000Z</time>
                <name>W056</name>
            </trkpt>
            <trkpt lon="6.969277778" lat="49.532555556">
                <ele>304.3755569777684</ele>
                <time>2006-06-18T09:35:45.000Z</time>
                <name>W057</name>
            </trkpt>
            <trkpt lon="6.970944444" lat="49.532138889">
                <ele>303.4088868711069</ele>
                <time>2006-06-18T09:35:47.000Z</time>
                <name>W058</name>
            </trkpt>
            <trkpt lon="6.971472222" lat="49.531916667">
                <ele>305.72999902666714</ele>
                <time>2006-06-18T09:35:51.000Z</time>
                <name>W059</name>
            </trkpt>
            <trkpt lon="6.972333333" lat="49.531416667">
                <ele>307.83999875999575</ele>
                <time>2006-06-18T09:36:04.000Z</time>
                <name>W060</name>
            </trkpt>
            <trkpt lon="6.972805556" lat="49.531083333">
                <ele>309.63333520000475</ele>
                <time>2006-06-18T09:36:08.000Z</time>
                <name>W061</name>
            </trkpt>
            <trkpt lon="6.972805556" lat="49.530416667">
                <ele>311.7333332000099</ele>
                <time>2006-06-18T09:36:13.000Z</time>
                <name>W062</name>
            </trkpt>
            <trkpt lon="6.97275" lat="49.530166667">
                <ele>312.4999987999877</ele>
                <time>2006-06-18T09:36:42.000Z</time>
                <name>W065</name>
            </trkpt>
            <trkpt lon="6.973861111" lat="49.529666667">
                <ele>316.5599975466612</ele>
                <time>2006-06-18T09:36:45.000Z</time>
                <name>W066</name>
            </trkpt>
            <trkpt lon="6.974027778" lat="49.528611111">
                <ele>322.6666664000172</ele>
                <time>2006-06-18T09:36:47.000Z</time>
                <name>W067</name>
            </trkpt>
            <trkpt lon="6.973583333" lat="49.527611111">
                <ele>328.8066687066742</ele>
                <time>2006-06-18T09:36:51.000Z</time>
                <name>W068</name>
            </trkpt>
            <trkpt lon="6.971638889" lat="49.525555556">
                <ele>346.3888870044417</ele>
                <time>2006-06-18T09:36:56.000Z</time>
                <name>W069</name>
            </trkpt>
            <trkpt lon="6.971166667" lat="49.524777778">
                <ele>350.21999839999785</ele>
                <time>2006-06-18T09:36:58.000Z</time>
                <name>W070</name>
            </trkpt>
            <trkpt lon="6.969666667" lat="49.523805556">
                <ele>356.41333195999835</ele>
                <time>2006-06-18T09:37:01.000Z</time>
                <name>W071</name>
            </trkpt>
            <trkpt lon="6.969194444" lat="49.5225">
                <ele>358.6333311999996</ele>
                <time>2006-06-18T09:37:04.000Z</time>
                <name>W072</name>
            </trkpt>
            <trkpt lon="6.96975" lat="49.521083333">
                <ele>373.1800013600013</ele>
                <time>2006-06-18T09:37:06.000Z</time>
                <name>W073</name>
            </trkpt>
            <trkpt lon="6.970611111" lat="49.519694444">
                <ele>381.65778067553856</ele>
                <time>2006-06-18T09:37:09.000Z</time>
                <name>W074</name>
            </trkpt>
            <trkpt lon="6.970583333" lat="49.518722222">
                <ele>385.44666727999976</ele>
                <time>2006-06-18T09:38:33.000Z</time>
                <name>W075</name>
            </trkpt>
            <trkpt lon="6.971138889" lat="49.518277778">
                <ele>388.44444462222737</ele>
                <time>2006-06-18T09:38:35.000Z</time>
                <name>W076</name>
            </trkpt>
            <trkpt lon="6.971388889" lat="49.517611111">
                <ele>393.47777888888567</ele>
                <time>2006-06-18T09:38:37.000Z</time>
                <name>W077</name>
            </trkpt>
            <trkpt lon="6.969361111" lat="49.515277778">
                <ele>403.5222234577679</ele>
                <time>2006-06-18T09:38:40.000Z</time>
                <name>W078</name>
            </trkpt>
            <trkpt lon="6.969305556" lat="49.513944444">
                <ele>412.6666739733032</ele>
                <time>2006-06-18T09:38:43.000Z</time>
                <name>W079</name>
            </trkpt>
            <trkpt lon="6.968666667" lat="49.513027778">
                <ele>418.0266666133335</ele>
                <time>2006-06-18T09:38:46.000Z</time>
                <name>W080</name>
            </trkpt>
            <trkpt lon="6.967888889" lat="49.512527778">
                <ele>421.85333294666225</ele>
                <time>2006-06-18T09:38:49.000Z</time>
                <name>W081</name>
            </trkpt>
            <trkpt lon="6.967555556" lat="49.512111111">
                <ele>428.3577754755325</ele>
                <time>2006-06-18T09:38:51.000Z</time>
                <name>W082</name>
            </trkpt>
            <trkpt lon="6.966" lat="49.511333333">
                <ele>439.29999920000733</ele>
                <time>2006-06-18T09:38:58.000Z</time>
                <name>W083</name>
            </trkpt>
            <trkpt lon="6.961666667" lat="49.510361111">
                <ele>458.7999981066723</ele>
                <time>2006-06-18T09:39:01.000Z</time>
                <name>W084</name>
            </trkpt>
            <trkpt lon="6.960722222" lat="49.510111111">
                <ele>456.971108782228</ele>
                <time>2006-06-18T09:39:03.000Z</time>
                <name>W085</name>
            </trkpt>
            <trkpt lon="6.961416667" lat="49.509555556">
                <ele>454.7466699466783</ele>
                <time>2006-06-18T09:39:05.000Z</time>
                <name>W086</name>
            </trkpt>
            <trkpt lon="6.961805556" lat="49.508583333">
                <ele>452.01666750665566</ele>
                <time>2006-06-18T09:39:07.000Z</time>
                <name>W087</name>
            </trkpt>
            <trkpt lon="6.964472222" lat="49.507138889">
                <ele>451.4255559244375</ele>
                <time>2006-06-18T09:39:09.000Z</time>
                <name>W088</name>
            </trkpt>
            <trkpt lon="6.964083333" lat="49.506305556">
                <ele>449.96999977333166</ele>
                <time>2006-06-18T09:39:12.000Z</time>
                <name>W089</name>
            </trkpt>
            <trkpt lon="6.964722222" lat="49.505472222">
                <ele>446.86666674667384</ele>
                <time>2006-06-18T09:39:22.000Z</time>
                <name>W090</name>
            </trkpt>
            <trkpt lon="6.966777778" lat="49.50575">
                <ele>452.98666783998766</ele>
                <time>2006-06-18T09:39:24.000Z</time>
                <name>W091</name>
            </trkpt>
            <trkpt lon="6.968" lat="49.505666667">
                <ele>460.4200025599983</ele>
                <time>2006-06-18T09:39:26.000Z</time>
                <name>W092</name>
            </trkpt>
            <trkpt lon="6.969805556" lat="49.506166667">
                <ele>456.43332566662997</ele>
                <time>2006-06-18T09:39:29.000Z</time>
                <name>W093</name>
            </trkpt>
            <trkpt lon="6.9705" lat="49.506">
                <ele>458.85999999999626</ele>
                <time>2006-06-18T09:39:34.000Z</time>
                <name>W094</name>
            </trkpt>
            <trkpt lon="6.97675" lat="49.50625">
                <ele>458.29999999999086</ele>
                <time>2006-06-18T09:39:45.000Z</time>
                <name>W095</name>
            </trkpt>
            <trkpt lon="6.97825" lat="49.505833333">
                <ele>464.6000037200199</ele>
                <time>2006-06-18T09:39:47.000Z</time>
                <name>W096</name>
            </trkpt>
            <trkpt lon="6.978861111" lat="49.506083333">
                <ele>462.2766710933409</ele>
                <time>2006-06-18T09:39:53.000Z</time>
                <name>W097</name>
            </trkpt>
            <trkpt lon="6.981666667" lat="49.507277778">
                <ele>460.966662693297</ele>
                <time>2006-06-18T09:39:59.000Z</time>
                <name>W098</name>
            </trkpt>
            <trkpt lon="6.984166667" lat="49.507444444">
                <ele>456.63334495998424</ele>
                <time>2006-06-18T09:40:48.000Z</time>
                <name>W099</name>
            </trkpt>
            <trkpt lon="6.987083333" lat="49.50625">
                <ele>452.5000048000012</ele>
                <time>2006-06-18T09:41:07.000Z</time>
                <name>W100</name>
            </trkpt>
            <trkpt lon="6.988916667" lat="49.504333333">
                <ele>420.3999938000028</ele>
                <time>2006-06-18T09:41:12.000Z</time>
                <name>W101</name>
            </trkpt>
            <trkpt lon="6.992027778" lat="49.503194444">
                <ele>379.3666613866861</ele>
                <time>2006-06-18T09:41:22.000Z</time>
                <name>W102</name>
            </trkpt>
            <trkpt lon="6.999138889" lat="49.503194444">
                <ele>357.6166661466668</ele>
                <time>2006-06-18T09:42:26.000Z</time>
                <name>W103</name>
            </trkpt>
            <trkpt lon="6.998416667" lat="49.502166667">
                <ele>359.0399983200065</ele>
                <time>2006-06-18T09:42:33.000Z</time>
                <name>W104</name>
            </trkpt>
            <trkpt lon="6.997111111" lat="49.501111111">
                <ele>371.5444450755595</ele>
                <time>2006-06-18T09:42:36.000Z</time>
                <name>W105</name>
            </trkpt>
            <trkpt lon="6.998472222" lat="49.499833333">
                <ele>356.83333563999184</ele>
                <time>2006-06-18T09:42:52.000Z</time>
                <name>W106</name>
            </trkpt>
            <trkpt lon="6.998444444" lat="49.498277778">
                <ele>348.8911135822178</ele>
                <time>2006-06-18T09:42:54.000Z</time>
                <name>W107</name>
            </trkpt>
            <trkpt lon="6.999694444" lat="49.49825">
                <ele>343.8666671999999</ele>
                <time>2006-06-18T09:42:56.000Z</time>
                <name>W108</name>
            </trkpt>
            <trkpt lon="7.00025" lat="49.494222222">
                <ele>346.7533351200222</ele>
                <time>2006-06-18T09:43:07.000Z</time>
                <name>W109</name>
            </trkpt>
            <trkpt lon="6.999777778" lat="49.493472222">
                <ele>344.7444461155561</ele>
                <time>2006-06-18T09:43:10.000Z</time>
                <name>W110</name>
            </trkpt>
            <trkpt lon="6.999194444" lat="49.493138889">
                <ele>340.2799962933308</ele>
                <time>2006-06-18T09:43:12.000Z</time>
                <name>W111</name>
            </trkpt>
            <trkpt lon="6.999" lat="49.492583333">
                <ele>337.85999935999575</ele>
                <time>2006-06-18T09:43:14.000Z</time>
                <name>W112</name>
            </trkpt>
            <trkpt lon="6.999861111" lat="49.491916667">
                <ele>341.6166696533134</ele>
                <time>2006-06-18T09:43:16.000Z</time>
                <name>W113</name>
            </trkpt>
            <trkpt lon="6.999972222" lat="49.491333333">
                <ele>332.2533258800018</ele>
                <time>2006-06-18T09:43:18.000Z</time>
                <name>W114</name>
            </trkpt>
            <trkpt lon="6.99975" lat="49.491">
                <ele>325.7599999999946</ele>
                <time>2006-06-18T09:43:21.000Z</time>
                <name>W115</name>
            </trkpt>
            <trkpt lon="6.999222222" lat="49.490194444">
                <ele>320.8377749688642</ele>
                <time>2006-06-18T09:43:24.000Z</time>
                <name>W116</name>
            </trkpt>
            <trkpt lon="6.999166667" lat="49.489722222">
                <ele>320.16666800000627</ele>
                <time>2006-06-18T09:43:27.000Z</time>
                <name>W117</name>
            </trkpt>
            <trkpt lon="6.999694444" lat="49.489888889">
                <ele>320.2733321333376</ele>
                <time>2006-06-18T09:43:30.000Z</time>
                <name>W118</name>
            </trkpt>
            <trkpt lon="7.000055556" lat="49.489472222">
                <ele>324.87556017774756</ele>
                <time>2006-06-18T09:43:32.000Z</time>
                <name>W119</name>
            </trkpt>
            <trkpt lon="7.001472222" lat="49.489833333">
                <ele>330.05333558666933</ele>
                <time>2006-06-18T09:43:34.000Z</time>
                <name>W120</name>
            </trkpt>
            <trkpt lon="7.0035" lat="49.490805556">
                <ele>356.04666432000664</ele>
                <time>2006-06-18T09:43:38.000Z</time>
                <name>W121</name>
            </trkpt>
            <trkpt lon="7.0045" lat="49.49175">
                <ele>363.0599999999545</ele>
                <time>2006-06-18T09:43:40.000Z</time>
                <name>W122</name>
            </trkpt>
            <trkpt lon="7.005972222" lat="49.4925">
                <ele>358.33333360000773</ele>
                <time>2006-06-18T09:43:44.000Z</time>
                <name>W123</name>
            </trkpt>
            <trkpt lon="7.012611111" lat="49.494333333">
                <ele>370.7000023999989</ele>
                <time>2006-06-18T09:44:02.000Z</time>
                <name>W124</name>
            </trkpt>
            <trkpt lon="7.013361111" lat="49.494972222">
                <ele>369.90000159998857</ele>
                <time>2006-06-18T09:44:07.000Z</time>
                <name>W125</name>
            </trkpt>
            <trkpt lon="7.013472222" lat="49.494666667">
                <ele>373.36666240002785</ele>
                <time>2006-06-18T09:44:09.000Z</time>
                <name>W126</name>
            </trkpt>
            <trkpt lon="7.012888889" lat="49.494166667">
                <ele>374.29999759998367</ele>
                <time>2006-06-18T09:44:12.000Z</time>
                <name>W127</name>
            </trkpt>
            <trkpt lon="7.012833333" lat="49.493805556">
                <ele>375.63332880000684</ele>
                <time>2006-06-18T09:44:16.000Z</time>
                <name>W128</name>
            </trkpt>
            <trkpt lon="7.013194444" lat="49.493555556">
                <ele>379.43332800001355</ele>
                <time>2006-06-18T09:44:19.000Z</time>
                <name>W129</name>
            </trkpt>
            <trkpt lon="7.013722222" lat="49.492611111">
                <ele>389.4955553244284</ele>
                <time>2006-06-18T09:44:22.000Z</time>
                <name>W130</name>
            </trkpt>
            <trkpt lon="7.017222222" lat="49.490138889">
                <ele>434.16666333332427</ele>
                <time>2006-06-18T09:44:28.000Z</time>
                <name>W131</name>
            </trkpt>
            <trkpt lon="7.020888889" lat="49.490888889">
                <ele>425.3844442489054</ele>
                <time>2006-06-18T09:44:58.000Z</time>
                <name>W132</name>
            </trkpt>
            <trkpt lon="7.023888889" lat="49.491611111">
                <ele>436.32222271111874</ele>
                <time>2006-06-18T09:45:01.000Z</time>
                <name>W133</name>
            </trkpt>
            <trkpt lon="7.024194444" lat="49.492277778">
                <ele>433.5111108888807</ele>
                <time>2006-06-18T09:45:05.000Z</time>
                <name>W134</name>
            </trkpt>
            <trkpt lon="7.024611111" lat="49.491972222">
                <ele>435.1222239777687</ele>
                <time>2006-06-18T09:45:09.000Z</time>
                <name>W135</name>
            </trkpt>
            <trkpt lon="7.025916667" lat="49.491277778">
                <ele>449.46666493337904</ele>
                <time>2006-06-18T09:45:15.000Z</time>
                <name>W136</name>
            </trkpt>
            <trkpt lon="7.028722222" lat="49.490333333">
                <ele>477.86000058664877</ele>
                <time>2006-06-18T09:45:27.000Z</time>
                <name>W137</name>
            </trkpt>
            <trkpt lon="7.032027778" lat="49.490166667">
                <ele>493.09333101335193</ele>
                <time>2006-06-18T09:45:31.000Z</time>
                <name>W138</name>
            </trkpt>
            <trkpt lon="7.032" lat="49.489916667">
                <ele>494.53999823998527</ele>
                <time>2006-06-18T09:45:34.000Z</time>
                <name>W139</name>
            </trkpt>
            <trkpt lon="7.032833333" lat="49.489805556">
                <ele>491.6866685199982</ele>
                <time>2006-06-18T09:45:37.000Z</time>
                <name>W140</name>
            </trkpt>
            <trkpt lon="7.034" lat="49.489388889">
                <ele>480.67333272001815</ele>
                <time>2006-06-18T09:45:40.000Z</time>
                <name>W141</name>
            </trkpt>
            <trkpt lon="7.035166667" lat="49.489305556">
                <ele>471.4999945200207</ele>
                <time>2006-06-18T09:45:44.000Z</time>
                <name>W142</name>
            </trkpt>
            <trkpt lon="7.036388889" lat="49.489444444">
                <ele>466.2777787555535</ele>
                <time>2006-06-18T09:45:46.000Z</time>
                <name>W143</name>
            </trkpt>
            <trkpt lon="7.0385" lat="49.489555556">
                <ele>456.03333120000445</ele>
                <time>2006-06-18T09:45:52.000Z</time>
                <name>W144</name>
            </trkpt>
            <trkpt lon="7.038305556" lat="49.490555556">
                <ele>451.93332954668335</ele>
                <time>2006-06-18T09:45:55.000Z</time>
                <name>W145</name>
            </trkpt>
            <trkpt lon="7.038027778" lat="49.490972222">
                <ele>450.86666698665715</ele>
                <time>2006-06-18T09:45:59.000Z</time>
                <name>W146</name>
            </trkpt>
        </trkseg>
    </trk>
</gpx>
